sensor_id;sensor_type;location;lat;lon;timestamp;P1;durP1;ratioP1;P2;durP2;ratioP2
1701;SDS011;848;48.354;10.064;2023-03-31T00:01:24;14.13;;;4.55;;
1701;SDS011;848;48.354;10.064;2023-03-31T00:03:51;15.40;;;4.47;;
1701;SDS011;848;48.354;10.064;2023-03-31T00:06:26;7.18;;;3.40;;
1701;SDS011;848;48.354;10.064;2023-03-31T00:08:54;10.77;;;4.30;;
1701;SDS011;848;48.354;10.064;2023-03-31T00:11:26;7.82;;;3.40;;
1701;SDS011;848;48.354;10.064;2023-03-31T00:13:56;10.60;;;3.90;;
1701;SDS011;848;48.354;10.064;2023-03-31T00:16:24;9.80;;;4.20;;
1701;SDS011;848;48.354;10.064;2023-03-31T00:18:51;9.25;;;4.50;;
1701;SDS011;848;48.354;10.064;2023-03-31T00:21:20;12.75;;;4.57;;
1701;SDS011;848;48.354;10.064;2023-03-31T00:23:56;11.60;;;4.85;;
1701;SDS011;848;48.354;10.064;2023-03-31T00:26:24;9.05;;;4.03;;
1701;SDS011;848;48.354;10.064;2023-03-31T00:28:52;8.30;;;3.67;;
1701;SDS011;848;48.354;10.064;2023-03-31T00:31:19;8.23;;;4.25;;
1701;SDS011;848;48.354;10.064;2023-03-31T00:33:47;12.75;;;4.15;;
1701;SDS011;848;48.354;10.064;2023-03-31T00:36:14;11.77;;;4.68;;
1701;SDS011;848;48.354;10.064;2023-03-31T00:38:45;10.98;;;4.88;;
1701;SDS011;848;48.354;10.064;2023-03-31T00:41:14;12.52;;;4.80;;
1701;SDS011;848;48.354;10.064;2023-03-31T00:46:48;8.45;;;4.40;;
1701;SDS011;848;48.354;10.064;2023-03-31T00:49:18;9.65;;;5.20;;
1701;SDS011;848;48.354;10.064;2023-03-31T00:51:50;10.55;;;4.85;;
1701;SDS011;848;48.354;10.064;2023-03-31T00:54:19;8.48;;;4.00;;
1701;SDS011;848;48.354;10.064;2023-03-31T00:56:50;13.38;;;4.95;;
1701;SDS011;848;48.354;10.064;2023-03-31T00:59:23;10.63;;;4.40;;
1701;SDS011;848;48.354;10.064;2023-03-31T01:01:53;11.10;;;4.75;;
1701;SDS011;848;48.354;10.064;2023-03-31T01:04:23;9.25;;;4.78;;
1701;SDS011;848;48.354;10.064;2023-03-31T01:06:52;8.57;;;4.45;;
1701;SDS011;848;48.354;10.064;2023-03-31T01:09:27;10.43;;;3.88;;
1701;SDS011;848;48.354;10.064;2023-03-31T01:12:00;10.18;;;4.90;;
1701;SDS011;848;48.354;10.064;2023-03-31T01:14:29;8.68;;;4.40;;
1701;SDS011;848;48.354;10.064;2023-03-31T01:16:56;9.95;;;4.55;;
1701;SDS011;848;48.354;10.064;2023-03-31T01:19:27;10.85;;;5.00;;
1701;SDS011;848;48.354;10.064;2023-03-31T01:22:10;9.65;;;4.25;;
1701;SDS011;848;48.354;10.064;2023-03-31T01:28:13;8.27;;;4.13;;
1701;SDS011;848;48.354;10.064;2023-03-31T01:36:49;12.55;;;4.80;;
1701;SDS011;848;48.354;10.064;2023-03-31T01:42:35;7.90;;;3.95;;
1701;SDS011;848;48.354;10.064;2023-03-31T01:45:07;8.68;;;4.45;;
1701;SDS011;848;48.354;10.064;2023-03-31T01:47:45;11.50;;;4.40;;
1701;SDS011;848;48.354;10.064;2023-03-31T01:50:21;7.50;;;4.38;;
1701;SDS011;848;48.354;10.064;2023-03-31T01:52:55;8.75;;;6.13;;
1701;SDS011;848;48.354;10.064;2023-03-31T01:55:27;10.32;;;4.32;;
1701;SDS011;848;48.354;10.064;2023-03-31T01:58:01;7.53;;;3.90;;
1701;SDS011;848;48.354;10.064;2023-03-31T02:00:35;9.48;;;4.80;;
1701;SDS011;848;48.354;10.064;2023-03-31T02:03:08;8.70;;;4.30;;
1701;SDS011;848;48.354;10.064;2023-03-31T02:05:40;12.55;;;4.70;;
1701;SDS011;848;48.354;10.064;2023-03-31T02:08:11;11.40;;;5.40;;
1701;SDS011;848;48.354;10.064;2023-03-31T02:10:43;11.35;;;5.75;;
1701;SDS011;848;48.354;10.064;2023-03-31T02:13:12;11.38;;;5.80;;
1701;SDS011;848;48.354;10.064;2023-03-31T02:15:42;12.38;;;5.00;;
1701;SDS011;848;48.354;10.064;2023-03-31T02:18:14;11.52;;;4.70;;
1701;SDS011;848;48.354;10.064;2023-03-31T02:20:43;11.70;;;6.40;;
1701;SDS011;848;48.354;10.064;2023-03-31T02:23:14;10.80;;;5.13;;
1701;SDS011;848;48.354;10.064;2023-03-31T02:25:48;12.82;;;4.63;;
1701;SDS011;848;48.354;10.064;2023-03-31T02:28:17;8.93;;;4.93;;
1701;SDS011;848;48.354;10.064;2023-03-31T02:30:49;10.50;;;4.82;;
1701;SDS011;848;48.354;10.064;2023-03-31T02:33:24;10.15;;;5.25;;
1701;SDS011;848;48.354;10.064;2023-03-31T02:35:51;16.50;;;7.10;;
1701;SDS011;848;48.354;10.064;2023-03-31T02:38:18;18.77;;;5.72;;
1701;SDS011;848;48.354;10.064;2023-03-31T02:40:45;9.45;;;5.55;;
1701;SDS011;848;48.354;10.064;2023-03-31T02:43:13;14.98;;;5.65;;
1701;SDS011;848;48.354;10.064;2023-03-31T02:45:42;10.27;;;5.57;;
1701;SDS011;848;48.354;10.064;2023-03-31T02:48:11;9.98;;;6.03;;
1701;SDS011;848;48.354;10.064;2023-03-31T02:50:52;9.25;;;4.38;;
1701;SDS011;848;48.354;10.064;2023-03-31T02:53:43;12.57;;;5.07;;
1701;SDS011;848;48.354;10.064;2023-03-31T02:56:25;10.90;;;5.70;;
1701;SDS011;848;48.354;10.064;2023-03-31T02:59:06;10.52;;;5.00;;
1701;SDS011;848;48.354;10.064;2023-03-31T03:01:58;12.98;;;5.95;;
1701;SDS011;848;48.354;10.064;2023-03-31T03:04:48;9.80;;;5.88;;
1701;SDS011;848;48.354;10.064;2023-03-31T03:07:37;12.02;;;5.78;;
1701;SDS011;848;48.354;10.064;2023-03-31T03:10:11;14.50;;;5.60;;
1701;SDS011;848;48.354;10.064;2023-03-31T03:12:44;12.05;;;6.35;;
1701;SDS011;848;48.354;10.064;2023-03-31T03:15:20;15.13;;;5.93;;
1701;SDS011;848;48.354;10.064;2023-03-31T03:17:51;11.48;;;6.00;;
1701;SDS011;848;48.354;10.064;2023-03-31T03:20:20;13.98;;;5.53;;
1701;SDS011;848;48.354;10.064;2023-03-31T03:22:48;12.38;;;5.20;;
1701;SDS011;848;48.354;10.064;2023-03-31T03:25:15;15.23;;;5.45;;
1701;SDS011;848;48.354;10.064;2023-03-31T03:27:44;18.10;;;5.97;;
1701;SDS011;848;48.354;10.064;2023-03-31T03:30:12;12.07;;;5.22;;
1701;SDS011;848;48.354;10.064;2023-03-31T03:32:41;12.45;;;6.00;;
1701;SDS011;848;48.354;10.064;2023-03-31T03:35:08;10.50;;;5.43;;
1701;SDS011;848;48.354;10.064;2023-03-31T03:37:35;16.77;;;5.45;;
1701;SDS011;848;48.354;10.064;2023-03-31T03:40:03;15.20;;;6.07;;
1701;SDS011;848;48.354;10.064;2023-03-31T03:42:31;11.25;;;5.32;;
1701;SDS011;848;48.354;10.064;2023-03-31T03:44:58;11.20;;;5.22;;
1701;SDS011;848;48.354;10.064;2023-03-31T03:47:25;13.27;;;6.10;;
1701;SDS011;848;48.354;10.064;2023-03-31T03:49:54;15.25;;;6.68;;
1701;SDS011;848;48.354;10.064;2023-03-31T03:52:20;16.45;;;6.88;;
1701;SDS011;848;48.354;10.064;2023-03-31T03:54:47;14.90;;;5.20;;
1701;SDS011;848;48.354;10.064;2023-03-31T03:57:14;11.82;;;5.90;;
1701;SDS011;848;48.354;10.064;2023-03-31T03:59:41;14.63;;;5.25;;
1701;SDS011;848;48.354;10.064;2023-03-31T04:02:08;19.23;;;6.43;;
1701;SDS011;848;48.354;10.064;2023-03-31T04:04:35;12.77;;;5.93;;
1701;SDS011;848;48.354;10.064;2023-03-31T04:07:03;10.63;;;5.70;;
1701;SDS011;848;48.354;10.064;2023-03-31T04:09:30;17.17;;;6.28;;
1701;SDS011;848;48.354;10.064;2023-03-31T04:11:57;12.00;;;6.22;;
1701;SDS011;848;48.354;10.064;2023-03-31T04:14:24;12.60;;;5.60;;
1701;SDS011;848;48.354;10.064;2023-03-31T04:16:53;14.15;;;5.63;;
1701;SDS011;848;48.354;10.064;2023-03-31T04:19:22;12.20;;;5.47;;
1701;SDS011;848;48.354;10.064;2023-03-31T04:21:50;11.10;;;6.10;;
1701;SDS011;848;48.354;10.064;2023-03-31T04:24:24;11.32;;;5.75;;
1701;SDS011;848;48.354;10.064;2023-03-31T04:26:55;12.32;;;6.15;;
1701;SDS011;848;48.354;10.064;2023-03-31T04:29:22;13.27;;;6.18;;
1701;SDS011;848;48.354;10.064;2023-03-31T04:31:50;13.70;;;6.13;;
1701;SDS011;848;48.354;10.064;2023-03-31T04:34:18;13.95;;;5.40;;
1701;SDS011;848;48.354;10.064;2023-03-31T04:36:46;13.10;;;5.28;;
1701;SDS011;848;48.354;10.064;2023-03-31T04:39:13;12.77;;;5.70;;
1701;SDS011;848;48.354;10.064;2023-03-31T04:41:43;11.32;;;5.95;;
1701;SDS011;848;48.354;10.064;2023-03-31T04:44:10;15.50;;;6.35;;
1701;SDS011;848;48.354;10.064;2023-03-31T04:46:37;14.88;;;6.55;;
1701;SDS011;848;48.354;10.064;2023-03-31T04:49:04;14.38;;;6.30;;
1701;SDS011;848;48.354;10.064;2023-03-31T04:51:31;10.30;;;6.07;;
1701;SDS011;848;48.354;10.064;2023-03-31T04:53:58;11.80;;;5.55;;
1701;SDS011;848;48.354;10.064;2023-03-31T04:56:25;10.52;;;5.75;;
1701;SDS011;848;48.354;10.064;2023-03-31T04:58:53;10.07;;;5.78;;
1701;SDS011;848;48.354;10.064;2023-03-31T05:01:20;13.55;;;5.80;;
1701;SDS011;848;48.354;10.064;2023-03-31T05:03:47;11.70;;;5.78;;
1701;SDS011;848;48.354;10.064;2023-03-31T05:06:14;14.88;;;6.07;;
1701;SDS011;848;48.354;10.064;2023-03-31T05:08:41;12.18;;;5.95;;
1701;SDS011;848;48.354;10.064;2023-03-31T05:11:08;14.25;;;5.93;;
1701;SDS011;848;48.354;10.064;2023-03-31T05:13:36;14.45;;;5.88;;
1701;SDS011;848;48.354;10.064;2023-03-31T05:16:08;12.52;;;6.70;;
1701;SDS011;848;48.354;10.064;2023-03-31T05:18:38;19.88;;;6.43;;
1701;SDS011;848;48.354;10.064;2023-03-31T05:21:09;12.32;;;5.85;;
1701;SDS011;848;48.354;10.064;2023-03-31T05:23:37;13.05;;;6.70;;
1701;SDS011;848;48.354;10.064;2023-03-31T05:26:04;13.65;;;6.30;;
1701;SDS011;848;48.354;10.064;2023-03-31T05:28:32;15.82;;;6.68;;
1701;SDS011;848;48.354;10.064;2023-03-31T05:31:00;14.13;;;6.07;;
1701;SDS011;848;48.354;10.064;2023-03-31T05:33:29;20.83;;;11.00;;
1701;SDS011;848;48.354;10.064;2023-03-31T05:35:56;16.92;;;9.85;;
1701;SDS011;848;48.354;10.064;2023-03-31T05:38:25;22.60;;;12.70;;
1701;SDS011;848;48.354;10.064;2023-03-31T05:40:55;17.65;;;8.95;;
1701;SDS011;848;48.354;10.064;2023-03-31T05:43:22;24.80;;;15.68;;
1701;SDS011;848;48.354;10.064;2023-03-31T05:45:49;28.00;;;17.15;;
1701;SDS011;848;48.354;10.064;2023-03-31T05:48:16;21.33;;;12.10;;
1701;SDS011;848;48.354;10.064;2023-03-31T05:50:45;13.18;;;6.65;;
1701;SDS011;848;48.354;10.064;2023-03-31T05:53:12;18.05;;;9.82;;
1701;SDS011;848;48.354;10.064;2023-03-31T05:55:41;22.40;;;12.30;;
1701;SDS011;848;48.354;10.064;2023-03-31T05:58:08;16.73;;;7.75;;
1701;SDS011;848;48.354;10.064;2023-03-31T06:00:34;12.30;;;6.65;;
1701;SDS011;848;48.354;10.064;2023-03-31T06:03:02;12.23;;;7.22;;
1701;SDS011;848;48.354;10.064;2023-03-31T06:05:31;11.32;;;6.20;;
1701;SDS011;848;48.354;10.064;2023-03-31T06:08:00;21.17;;;11.13;;
1701;SDS011;848;48.354;10.064;2023-03-31T06:10:27;29.70;;;18.23;;
1701;SDS011;848;48.354;10.064;2023-03-31T06:12:54;21.52;;;12.65;;
1701;SDS011;848;48.354;10.064;2023-03-31T06:15:21;16.40;;;9.35;;
1701;SDS011;848;48.354;10.064;2023-03-31T06:17:48;13.82;;;6.75;;
1701;SDS011;848;48.354;10.064;2023-03-31T06:20:15;13.77;;;6.78;;
1701;SDS011;848;48.354;10.064;2023-03-31T06:22:42;17.40;;;6.65;;
1701;SDS011;848;48.354;10.064;2023-03-31T06:25:10;16.40;;;8.35;;
1701;SDS011;848;48.354;10.064;2023-03-31T06:27:37;14.85;;;8.23;;
1701;SDS011;848;48.354;10.064;2023-03-31T06:30:05;11.20;;;6.25;;
1701;SDS011;848;48.354;10.064;2023-03-31T06:32:33;16.15;;;7.43;;
1701;SDS011;848;48.354;10.064;2023-03-31T06:34:59;13.35;;;6.60;;
1701;SDS011;848;48.354;10.064;2023-03-31T06:37:26;12.68;;;6.60;;
1701;SDS011;848;48.354;10.064;2023-03-31T06:39:53;19.90;;;10.80;;
1701;SDS011;848;48.354;10.064;2023-03-31T06:42:23;24.67;;;8.82;;
1701;SDS011;848;48.354;10.064;2023-03-31T06:44:50;17.08;;;7.78;;
1701;SDS011;848;48.354;10.064;2023-03-31T06:47:17;20.35;;;11.35;;
1701;SDS011;848;48.354;10.064;2023-03-31T06:49:44;13.68;;;8.57;;
1701;SDS011;848;48.354;10.064;2023-03-31T06:52:11;14.25;;;7.07;;
1701;SDS011;848;48.354;10.064;2023-03-31T06:54:38;10.90;;;6.28;;
1701;SDS011;848;48.354;10.064;2023-03-31T06:57:06;13.43;;;6.32;;
1701;SDS011;848;48.354;10.064;2023-03-31T06:59:34;10.85;;;6.80;;
1701;SDS011;848;48.354;10.064;2023-03-31T07:02:01;11.32;;;6.32;;
1701;SDS011;848;48.354;10.064;2023-03-31T07:04:28;14.73;;;6.68;;
1701;SDS011;848;48.354;10.064;2023-03-31T07:06:56;11.45;;;6.43;;
1701;SDS011;848;48.354;10.064;2023-03-31T07:09:26;15.18;;;6.75;;
1701;SDS011;848;48.354;10.064;2023-03-31T07:11:53;15.20;;;7.47;;
1701;SDS011;848;48.354;10.064;2023-03-31T07:14:20;18.50;;;6.68;;
1701;SDS011;848;48.354;10.064;2023-03-31T07:16:52;12.00;;;6.88;;
1701;SDS011;848;48.354;10.064;2023-03-31T07:19:19;12.52;;;6.90;;
1701;SDS011;848;48.354;10.064;2023-03-31T07:21:45;10.52;;;6.28;;
1701;SDS011;848;48.354;10.064;2023-03-31T07:24:12;13.52;;;6.90;;
1701;SDS011;848;48.354;10.064;2023-03-31T07:26:39;17.98;;;6.57;;
1701;SDS011;848;48.354;10.064;2023-03-31T07:29:06;12.43;;;6.47;;
1701;SDS011;848;48.354;10.064;2023-03-31T07:31:33;15.23;;;7.07;;
1701;SDS011;848;48.354;10.064;2023-03-31T07:34:02;16.10;;;7.00;;
1701;SDS011;848;48.354;10.064;2023-03-31T07:36:29;13.57;;;7.10;;
1701;SDS011;848;48.354;10.064;2023-03-31T07:38:57;13.18;;;7.80;;
1701;SDS011;848;48.354;10.064;2023-03-31T07:41:28;15.15;;;7.60;;
1701;SDS011;848;48.354;10.064;2023-03-31T07:43:55;12.07;;;6.68;;
1701;SDS011;848;48.354;10.064;2023-03-31T07:46:22;54.40;;;22.30;;
1701;SDS011;848;48.354;10.064;2023-03-31T07:48:56;27.73;;;10.88;;
1701;SDS011;848;48.354;10.064;2023-03-31T07:51:27;17.35;;;8.25;;
1701;SDS011;848;48.354;10.064;2023-03-31T07:53:54;19.65;;;8.25;;
1701;SDS011;848;48.354;10.064;2023-03-31T07:56:22;12.63;;;5.30;;
1701;SDS011;848;48.354;10.064;2023-03-31T07:58:50;11.13;;;5.32;;
1701;SDS011;848;48.354;10.064;2023-03-31T08:01:18;8.48;;;3.40;;
1701;SDS011;848;48.354;10.064;2023-03-31T08:03:49;9.20;;;4.20;;
1701;SDS011;848;48.354;10.064;2023-03-31T08:06:18;11.82;;;5.55;;
1701;SDS011;848;48.354;10.064;2023-03-31T08:08:48;6.40;;;2.28;;
1701;SDS011;848;48.354;10.064;2023-03-31T08:11:16;9.73;;;3.75;;
1701;SDS011;848;48.354;10.064;2023-03-31T08:13:45;6.88;;;2.58;;
1701;SDS011;848;48.354;10.064;2023-03-31T08:16:12;13.52;;;5.25;;
1701;SDS011;848;48.354;10.064;2023-03-31T08:18:39;6.85;;;2.50;;
1701;SDS011;848;48.354;10.064;2023-03-31T08:21:06;7.28;;;3.30;;
1701;SDS011;848;48.354;10.064;2023-03-31T08:23:33;7.60;;;2.20;;
1701;SDS011;848;48.354;10.064;2023-03-31T08:26:09;8.23;;;2.30;;
1701;SDS011;848;48.354;10.064;2023-03-31T08:28:37;6.35;;;1.75;;
1701;SDS011;848;48.354;10.064;2023-03-31T08:31:04;5.90;;;1.60;;
1701;SDS011;848;48.354;10.064;2023-03-31T08:33:31;30.70;;;9.95;;
1701;SDS011;848;48.354;10.064;2023-03-31T08:36:00;6.55;;;1.70;;
1701;SDS011;848;48.354;10.064;2023-03-31T08:38:28;9.30;;;2.60;;
1701;SDS011;848;48.354;10.064;2023-03-31T08:40:59;6.10;;;1.60;;
1701;SDS011;848;48.354;10.064;2023-03-31T08:43:29;16.63;;;4.63;;
1701;SDS011;848;48.354;10.064;2023-03-31T08:45:59;8.38;;;1.92;;
1701;SDS011;848;48.354;10.064;2023-03-31T08:48:28;5.57;;;1.50;;
1701;SDS011;848;48.354;10.064;2023-03-31T08:51:02;5.70;;;1.63;;
1701;SDS011;848;48.354;10.064;2023-03-31T08:53:33;10.20;;;3.03;;
1701;SDS011;848;48.354;10.064;2023-03-31T08:56:08;6.68;;;1.60;;
1701;SDS011;848;48.354;10.064;2023-03-31T08:58:43;6.32;;;1.60;;
1701;SDS011;848;48.354;10.064;2023-03-31T09:01:16;7.55;;;1.40;;
1701;SDS011;848;48.354;10.064;2023-03-31T09:03:52;7.20;;;1.50;;
1701;SDS011;848;48.354;10.064;2023-03-31T09:06:35;5.00;;;1.10;;
1701;SDS011;848;48.354;10.064;2023-03-31T09:09:09;6.25;;;1.10;;
1701;SDS011;848;48.354;10.064;2023-03-31T09:11:41;5.45;;;0.98;;
1701;SDS011;848;48.354;10.064;2023-03-31T09:17:07;4.90;;;0.80;;
1701;SDS011;848;48.354;10.064;2023-03-31T09:19:42;6.03;;;1.00;;
1701;SDS011;848;48.354;10.064;2023-03-31T09:22:15;5.10;;;0.98;;
1701;SDS011;848;48.354;10.064;2023-03-31T09:24:50;5.18;;;0.88;;
1701;SDS011;848;48.354;10.064;2023-03-31T09:27:21;6.57;;;1.13;;
1701;SDS011;848;48.354;10.064;2023-03-31T09:29:54;4.80;;;0.95;;
1701;SDS011;848;48.354;10.064;2023-03-31T09:32:23;4.80;;;0.82;;
1701;SDS011;848;48.354;10.064;2023-03-31T09:34:55;4.85;;;0.80;;
1701;SDS011;848;48.354;10.064;2023-03-31T09:37:29;5.53;;;1.00;;
1701;SDS011;848;48.354;10.064;2023-03-31T09:39:58;5.10;;;0.88;;
1701;SDS011;848;48.354;10.064;2023-03-31T09:42:31;6.10;;;1.20;;
1701;SDS011;848;48.354;10.064;2023-03-31T09:45:00;5.40;;;0.90;;
1701;SDS011;848;48.354;10.064;2023-03-31T09:47:29;6.35;;;1.20;;
1701;SDS011;848;48.354;10.064;2023-03-31T09:50:03;5.10;;;1.00;;
1701;SDS011;848;48.354;10.064;2023-03-31T09:52:31;5.32;;;0.77;;
1701;SDS011;848;48.354;10.064;2023-03-31T09:55:01;5.82;;;1.00;;
1701;SDS011;848;48.354;10.064;2023-03-31T09:57:32;6.68;;;1.20;;
1701;SDS011;848;48.354;10.064;2023-03-31T10:00:03;6.82;;;1.10;;
1701;SDS011;848;48.354;10.064;2023-03-31T10:02:39;6.68;;;1.60;;
1701;SDS011;848;48.354;10.064;2023-03-31T10:05:17;5.32;;;1.00;;
1701;SDS011;848;48.354;10.064;2023-03-31T10:07:48;6.47;;;1.20;;
1701;SDS011;848;48.354;10.064;2023-03-31T10:10:19;8.65;;;0.98;;
1701;SDS011;848;48.354;10.064;2023-03-31T10:12:52;8.82;;;1.80;;
1701;SDS011;848;48.354;10.064;2023-03-31T10:15:21;5.30;;;1.40;;
1701;SDS011;848;48.354;10.064;2023-03-31T10:17:54;6.45;;;0.90;;
1701;SDS011;848;48.354;10.064;2023-03-31T10:20:29;10.38;;;1.60;;
1701;SDS011;848;48.354;10.064;2023-03-31T10:23:01;4.63;;;0.65;;
1701;SDS011;848;48.354;10.064;2023-03-31T10:25:30;5.55;;;0.85;;
1701;SDS011;848;48.354;10.064;2023-03-31T10:27:59;10.13;;;1.40;;
1701;SDS011;848;48.354;10.064;2023-03-31T10:30:29;5.70;;;0.93;;
1701;SDS011;848;48.354;10.064;2023-03-31T10:33:10;8.20;;;0.90;;
1701;SDS011;848;48.354;10.064;2023-03-31T10:35:41;5.65;;;0.93;;
1701;SDS011;848;48.354;10.064;2023-03-31T10:38:09;5.45;;;0.85;;
1701;SDS011;848;48.354;10.064;2023-03-31T10:40:40;4.88;;;0.70;;
1701;SDS011;848;48.354;10.064;2023-03-31T10:43:16;6.07;;;0.85;;
1701;SDS011;848;48.354;10.064;2023-03-31T10:45:47;7.50;;;1.40;;
1701;SDS011;848;48.354;10.064;2023-03-31T10:48:22;6.07;;;0.82;;
1701;SDS011;848;48.354;10.064;2023-03-31T10:50:51;4.88;;;0.70;;
1701;SDS011;848;48.354;10.064;2023-03-31T10:53:18;7.80;;;1.10;;
1701;SDS011;848;48.354;10.064;2023-03-31T10:55:50;7.05;;;0.77;;
1701;SDS011;848;48.354;10.064;2023-03-31T10:58:28;5.85;;;0.90;;
1701;SDS011;848;48.354;10.064;2023-03-31T11:01:13;7.32;;;1.35;;
1701;SDS011;848;48.354;10.064;2023-03-31T11:03:56;5.22;;;0.88;;
1701;SDS011;848;48.354;10.064;2023-03-31T11:06:34;7.90;;;0.90;;
1701;SDS011;848;48.354;10.064;2023-03-31T11:09:16;4.70;;;0.80;;
1701;SDS011;848;48.354;10.064;2023-03-31T11:11:55;8.23;;;0.60;;
1701;SDS011;848;48.354;10.064;2023-03-31T11:14:32;4.63;;;0.70;;
1701;SDS011;848;48.354;10.064;2023-03-31T11:17:10;7.45;;;1.27;;
1701;SDS011;848;48.354;10.064;2023-03-31T11:19:50;5.95;;;0.77;;
1701;SDS011;848;48.354;10.064;2023-03-31T11:22:28;5.97;;;0.90;;
1701;SDS011;848;48.354;10.064;2023-03-31T11:25:08;6.70;;;0.80;;
1701;SDS011;848;48.354;10.064;2023-03-31T11:30:34;6.57;;;0.65;;
1701;SDS011;848;48.354;10.064;2023-03-31T11:33:21;5.53;;;1.02;;
1701;SDS011;848;48.354;10.064;2023-03-31T11:36:00;5.20;;;0.63;;
1701;SDS011;848;48.354;10.064;2023-03-31T11:38:46;5.13;;;0.80;;
1701;SDS011;848;48.354;10.064;2023-03-31T11:41:24;5.50;;;0.93;;
1701;SDS011;848;48.354;10.064;2023-03-31T11:43:59;5.45;;;0.70;;
1701;SDS011;848;48.354;10.064;2023-03-31T11:46:31;5.95;;;0.80;;
1701;SDS011;848;48.354;10.064;2023-03-31T11:49:05;5.05;;;0.80;;
1701;SDS011;848;48.354;10.064;2023-03-31T11:51:40;4.70;;;0.70;;
1701;SDS011;848;48.354;10.064;2023-03-31T11:54:15;6.65;;;0.90;;
1701;SDS011;848;48.354;10.064;2023-03-31T11:56:45;7.07;;;0.75;;
1701;SDS011;848;48.354;10.064;2023-03-31T11:59:13;5.30;;;0.90;;
1701;SDS011;848;48.354;10.064;2023-03-31T12:01:46;4.70;;;0.60;;
1701;SDS011;848;48.354;10.064;2023-03-31T12:04:22;10.18;;;1.50;;
1701;SDS011;848;48.354;10.064;2023-03-31T12:06:59;5.70;;;1.00;;
1701;SDS011;848;48.354;10.064;2023-03-31T12:09:31;5.88;;;0.90;;
1701;SDS011;848;48.354;10.064;2023-03-31T12:12:04;8.27;;;1.17;;
1701;SDS011;848;48.354;10.064;2023-03-31T12:14:36;5.32;;;0.85;;
1701;SDS011;848;48.354;10.064;2023-03-31T12:17:08;7.13;;;0.60;;
1701;SDS011;848;48.354;10.064;2023-03-31T12:19:42;4.93;;;0.70;;
1701;SDS011;848;48.354;10.064;2023-03-31T12:22:14;4.82;;;0.32;;
1701;SDS011;848;48.354;10.064;2023-03-31T12:24:44;4.60;;;0.38;;
1701;SDS011;848;48.354;10.064;2023-03-31T12:27:13;5.05;;;0.40;;
1701;SDS011;848;48.354;10.064;2023-03-31T12:29:44;5.15;;;0.52;;
1701;SDS011;848;48.354;10.064;2023-03-31T12:32:17;4.70;;;0.40;;
1701;SDS011;848;48.354;10.064;2023-03-31T12:34:50;5.68;;;0.45;;
1701;SDS011;848;48.354;10.064;2023-03-31T12:37:35;4.50;;;0.52;;
1701;SDS011;848;48.354;10.064;2023-03-31T12:40:30;4.72;;;0.60;;
1701;SDS011;848;48.354;10.064;2023-03-31T12:43:18;5.80;;;0.70;;
1701;SDS011;848;48.354;10.064;2023-03-31T12:46:01;5.38;;;0.40;;
1701;SDS011;848;48.354;10.064;2023-03-31T12:48:50;5.78;;;0.45;;
1701;SDS011;848;48.354;10.064;2023-03-31T12:51:47;5.32;;;0.57;;
1701;SDS011;848;48.354;10.064;2023-03-31T12:54:35;4.30;;;0.40;;
1701;SDS011;848;48.354;10.064;2023-03-31T12:57:29;4.80;;;0.55;;
1701;SDS011;848;48.354;10.064;2023-03-31T13:00:15;5.47;;;0.60;;
1701;SDS011;848;48.354;10.064;2023-03-31T13:02:46;4.90;;;0.57;;
1701;SDS011;848;48.354;10.064;2023-03-31T13:08:13;5.85;;;0.60;;
1701;SDS011;848;48.354;10.064;2023-03-31T13:11:18;5.53;;;0.77;;
1701;SDS011;848;48.354;10.064;2023-03-31T13:13:56;7.53;;;0.65;;
1701;SDS011;848;48.354;10.064;2023-03-31T13:16:26;4.80;;;0.30;;
1701;SDS011;848;48.354;10.064;2023-03-31T13:18:53;7.07;;;0.65;;
1701;SDS011;848;48.354;10.064;2023-03-31T13:21:21;5.60;;;0.45;;
1701;SDS011;848;48.354;10.064;2023-03-31T13:23:49;5.35;;;0.75;;
1701;SDS011;848;48.354;10.064;2023-03-31T13:26:38;5.72;;;0.90;;
1701;SDS011;848;48.354;10.064;2023-03-31T13:29:10;5.03;;;0.77;;
1701;SDS011;848;48.354;10.064;2023-03-31T13:34:46;5.50;;;0.63;;
1701;SDS011;848;48.354;10.064;2023-03-31T13:37:19;5.20;;;0.55;;
1701;SDS011;848;48.354;10.064;2023-03-31T13:46:25;4.50;;;0.50;;
1701;SDS011;848;48.354;10.064;2023-03-31T13:49:23;6.13;;;0.73;;
1701;SDS011;848;48.354;10.064;2023-03-31T13:52:08;6.57;;;0.60;;
1701;SDS011;848;48.354;10.064;2023-03-31T13:54:51;4.40;;;0.50;;
1701;SDS011;848;48.354;10.064;2023-03-31T14:00:43;9.80;;;0.80;;
1701;SDS011;848;48.354;10.064;2023-03-31T14:03:37;5.75;;;0.70;;
1701;SDS011;848;48.354;10.064;2023-03-31T14:06:20;9.05;;;0.90;;
1701;SDS011;848;48.354;10.064;2023-03-31T14:08:53;8.82;;;0.60;;
1701;SDS011;848;48.354;10.064;2023-03-31T14:11:23;6.35;;;0.70;;
1701;SDS011;848;48.354;10.064;2023-03-31T14:13:57;7.53;;;1.05;;
1701;SDS011;848;48.354;10.064;2023-03-31T14:16:27;5.82;;;0.85;;
1701;SDS011;848;48.354;10.064;2023-03-31T14:18:59;5.40;;;0.50;;
1701;SDS011;848;48.354;10.064;2023-03-31T14:21:39;6.18;;;1.13;;
1701;SDS011;848;48.354;10.064;2023-03-31T14:24:13;6.93;;;0.98;;
1701;SDS011;848;48.354;10.064;2023-03-31T14:26:50;7.05;;;0.98;;
1701;SDS011;848;48.354;10.064;2023-03-31T14:29:27;6.15;;;0.63;;
1701;SDS011;848;48.354;10.064;2023-03-31T14:32:05;8.00;;;0.80;;
1701;SDS011;848;48.354;10.064;2023-03-31T14:34:45;6.47;;;0.80;;
1701;SDS011;848;48.354;10.064;2023-03-31T14:37:21;6.13;;;1.00;;
1701;SDS011;848;48.354;10.064;2023-03-31T14:39:50;4.78;;;0.50;;
1701;SDS011;848;48.354;10.064;2023-03-31T14:42:21;6.03;;;0.93;;
1701;SDS011;848;48.354;10.064;2023-03-31T14:44:53;6.30;;;0.82;;
1701;SDS011;848;48.354;10.064;2023-03-31T14:47:23;6.93;;;0.88;;
1701;SDS011;848;48.354;10.064;2023-03-31T14:49:59;5.70;;;0.80;;
1701;SDS011;848;48.354;10.064;2023-03-31T14:52:28;10.45;;;0.80;;
1701;SDS011;848;48.354;10.064;2023-03-31T14:54:57;5.80;;;0.75;;
1701;SDS011;848;48.354;10.064;2023-03-31T14:57:26;6.15;;;0.32;;
1701;SDS011;848;48.354;10.064;2023-03-31T14:59:57;7.25;;;0.75;;
1701;SDS011;848;48.354;10.064;2023-03-31T15:02:29;5.07;;;0.52;;
1701;SDS011;848;48.354;10.064;2023-03-31T15:05:00;7.25;;;0.70;;
1701;SDS011;848;48.354;10.064;2023-03-31T15:07:29;5.00;;;0.43;;
1701;SDS011;848;48.354;10.064;2023-03-31T15:09:56;7.50;;;0.80;;
1701;SDS011;848;48.354;10.064;2023-03-31T15:12:23;5.40;;;0.60;;
1701;SDS011;848;48.354;10.064;2023-03-31T15:14:53;5.25;;;0.77;;
1701;SDS011;848;48.354;10.064;2023-03-31T15:17:24;7.90;;;1.05;;
1701;SDS011;848;48.354;10.064;2023-03-31T15:19:55;5.32;;;0.73;;
1701;SDS011;848;48.354;10.064;2023-03-31T15:22:24;4.80;;;0.68;;
1701;SDS011;848;48.354;10.064;2023-03-31T15:24:55;7.88;;;1.05;;
1701;SDS011;848;48.354;10.064;2023-03-31T15:27:29;7.68;;;1.10;;
1701;SDS011;848;48.354;10.064;2023-03-31T15:30:01;7.63;;;0.80;;
1701;SDS011;848;48.354;10.064;2023-03-31T15:32:33;6.72;;;0.75;;
1701;SDS011;848;48.354;10.064;2023-03-31T15:35:02;7.05;;;0.55;;
1701;SDS011;848;48.354;10.064;2023-03-31T15:37:34;4.78;;;0.50;;
1701;SDS011;848;48.354;10.064;2023-03-31T15:40:08;12.35;;;1.80;;
1701;SDS011;848;48.354;10.064;2023-03-31T15:42:42;4.70;;;0.68;;
1701;SDS011;848;48.354;10.064;2023-03-31T15:48:15;4.70;;;0.60;;
1701;SDS011;848;48.354;10.064;2023-03-31T15:50:46;5.25;;;0.90;;
1701;SDS011;848;48.354;10.064;2023-03-31T15:53:28;6.60;;;1.23;;
1701;SDS011;848;48.354;10.064;2023-03-31T15:55:57;7.00;;;0.80;;
1701;SDS011;848;48.354;10.064;2023-03-31T16:01:19;5.75;;;1.58;;
1701;SDS011;848;48.354;10.064;2023-03-31T16:03:46;4.70;;;0.75;;
1701;SDS011;848;48.354;10.064;2023-03-31T16:06:20;4.82;;;0.60;;
1701;SDS011;848;48.354;10.064;2023-03-31T16:08:55;6.00;;;1.00;;
1701;SDS011;848;48.354;10.064;2023-03-31T16:11:25;5.72;;;0.90;;
1701;SDS011;848;48.354;10.064;2023-03-31T16:13:59;6.85;;;0.70;;
1701;SDS011;848;48.354;10.064;2023-03-31T16:16:31;4.25;;;0.60;;
1701;SDS011;848;48.354;10.064;2023-03-31T16:18:59;5.32;;;0.70;;